createdAt,value
2019-05-23T00:02:16.859Z,16.20
2019-05-23T00:05:00.564Z,16.20
2019-05-23T00:07:31.809Z,16.10
2019-05-23T00:10:04.553Z,15.90
2019-05-23T00:13:01.805Z,15.70
2019-05-23T00:15:39.368Z,15.60
2019-05-23T00:18:10.514Z,15.50
2019-05-23T00:20:42.909Z,15.40
2019-05-23T00:23:15.412Z,15.10
2019-05-23T00:25:47.469Z,15.10
2019-05-23T00:28:20.538Z,15.10
2019-05-23T00:31:05.159Z,15.10
2019-05-23T00:33:37.800Z,15.00
2019-05-23T00:36:09.114Z,15.10
2019-05-23T00:38:40.251Z,15.20
2019-05-23T00:41:11.569Z,15.20
2019-05-23T00:43:43.008Z,15.10
2019-05-23T00:46:15.289Z,15.00
2019-05-23T00:48:46.885Z,15.00
2019-05-23T00:51:19.328Z,14.90
2019-05-23T00:53:51.168Z,14.90
2019-05-23T00:56:22.139Z,14.90
2019-05-23T00:58:54.458Z,15.00
2019-05-23T01:01:26.119Z,15.00
2019-05-23T01:03:57.228Z,15.00
2019-05-23T01:06:27.948Z,15.00
2019-05-23T01:08:59.649Z,14.90
2019-05-23T01:11:30.403Z,14.70
2019-05-23T01:14:01.803Z,14.70
2019-05-23T01:16:33.314Z,14.70
2019-05-23T01:19:04.843Z,14.70
2019-05-23T01:21:52.684Z,14.90
2019-05-23T01:24:43.540Z,14.90
2019-05-23T01:27:14.650Z,14.90
2019-05-23T01:29:50.028Z,14.90
2019-05-23T01:32:49.045Z,14.90
2019-05-23T01:35:22.909Z,14.90
2019-05-23T01:37:54.600Z,14.90
2019-05-23T01:40:25.483Z,14.80
2019-05-23T01:42:56.874Z,14.80
2019-05-23T01:45:27.928Z,14.80
2019-05-23T01:47:59.293Z,14.80
2019-05-23T01:50:30.188Z,14.70
2019-05-23T01:53:01.348Z,14.70
2019-05-23T01:55:32.103Z,14.70
2019-05-23T01:58:02.874Z,14.70
2019-05-23T02:00:34.775Z,14.60
2019-05-23T02:03:07.068Z,14.70
2019-05-23T02:05:38.480Z,14.70
2019-05-23T02:08:12.003Z,14.60
2019-05-23T02:10:43.913Z,14.50
2019-05-23T02:13:15.044Z,14.30
2019-05-23T02:15:46.188Z,14.30
2019-05-23T02:18:18.634Z,14.40
2019-05-23T02:20:49.981Z,14.40
2019-05-23T02:23:21.369Z,14.30
2019-05-23T02:25:52.330Z,14.40
2019-05-23T02:28:24.044Z,14.30
2019-05-23T02:30:55.245Z,14.10
2019-05-23T02:33:26.849Z,14.10
2019-05-23T02:35:59.150Z,14.10
2019-05-23T02:38:46.750Z,14.10
2019-05-23T02:41:39.284Z,14.20
2019-05-23T02:44:14.500Z,14.10
2019-05-23T02:46:53.870Z,14.10
2019-05-23T02:49:27.144Z,14.10
2019-05-23T02:52:00.530Z,14.10
2019-05-23T02:54:37.310Z,14.00
2019-05-23T02:57:08.381Z,13.90
2019-05-23T02:59:48.770Z,14.00
2019-05-23T03:02:51.335Z,14.00
2019-05-23T03:05:25.784Z,14.00
2019-05-23T03:07:59.473Z,14.10
2019-05-23T03:10:47.816Z,14.00
2019-05-23T03:13:21.464Z,14.00
2019-05-23T03:15:53.011Z,13.90
2019-05-23T03:18:25.736Z,13.90
2019-05-23T03:20:57.435Z,13.90
2019-05-23T03:23:29.618Z,13.90
2019-05-23T03:26:44.484Z,13.90
2019-05-23T03:29:15.599Z,13.80
2019-05-23T03:31:52.090Z,13.80
2019-05-23T03:34:25.261Z,13.80
2019-05-23T03:36:57.275Z,13.80
2019-05-23T03:39:28.581Z,13.70
2019-05-23T03:41:59.544Z,13.60
2019-05-23T03:44:31.215Z,13.60
2019-05-23T03:47:04.099Z,13.60
2019-05-23T03:49:37.058Z,13.60
2019-05-23T03:52:10.004Z,13.50
2019-05-23T03:54:42.693Z,13.50
2019-05-23T03:57:13.515Z,13.50
2019-05-23T03:59:44.558Z,13.60
2019-05-23T04:02:17.314Z,13.70
2019-05-23T04:04:49.306Z,13.70
2019-05-23T04:07:20.539Z,13.70
2019-05-23T04:09:51.801Z,13.70
2019-05-23T04:12:22.700Z,13.70
2019-05-23T04:14:53.980Z,13.70
2019-05-23T04:17:24.948Z,13.60
2019-05-23T04:19:55.864Z,13.60
2019-05-23T04:22:27.455Z,13.70
2019-05-23T04:25:01.822Z,13.70
2019-05-23T04:27:30.729Z,13.70
2019-05-23T04:30:01.885Z,13.80
2019-05-23T04:32:32.815Z,13.80
2019-05-23T04:35:05.074Z,14.00
2019-05-23T04:37:36.512Z,14.10
2019-05-23T04:40:09.320Z,14.10
2019-05-23T04:42:40.337Z,14.20
2019-05-23T04:45:11.745Z,14.20
2019-05-23T04:47:42.738Z,14.30
2019-05-23T04:50:14.775Z,14.40
2019-05-23T04:52:45.549Z,14.50
2019-05-23T04:55:16.994Z,14.50
2019-05-23T04:57:48.345Z,14.60
2019-05-23T05:00:19.849Z,14.70
2019-05-23T05:02:50.770Z,14.80
2019-05-23T05:05:22.269Z,14.80
2019-05-23T05:07:53.079Z,14.80
2019-05-23T05:10:26.624Z,14.90
2019-05-23T05:12:57.888Z,14.80
2019-05-23T05:15:28.945Z,14.80
2019-05-23T05:18:00.304Z,14.90
2019-05-23T05:20:31.091Z,14.90
2019-05-23T05:23:02.050Z,15.00
2019-05-23T05:25:33.089Z,15.00
2019-05-23T05:28:04.289Z,15.00
2019-05-23T05:30:35.261Z,15.00
2019-05-23T05:33:06.098Z,15.10
2019-05-23T05:35:37.009Z,15.20
2019-05-23T05:38:08.153Z,15.20
2019-05-23T05:40:39.867Z,15.20
2019-05-23T05:43:11.186Z,15.20
2019-05-23T05:45:42.463Z,15.30
2019-05-23T05:48:13.559Z,15.40
2019-05-23T05:50:44.407Z,15.40
2019-05-23T05:53:15.674Z,15.60
2019-05-23T05:55:46.744Z,15.70
2019-05-23T05:58:17.620Z,15.60
2019-05-23T06:01:09.121Z,15.60
2019-05-23T06:03:40.039Z,15.70
2019-05-23T06:06:27.945Z,15.60
2019-05-23T06:09:01.073Z,15.70
2019-05-23T06:11:32.110Z,15.80
2019-05-23T06:14:03.154Z,15.70
2019-05-23T06:16:35.044Z,15.80
2019-05-23T06:19:06.684Z,15.80
2019-05-23T06:21:37.599Z,15.90
2019-05-23T06:24:09.174Z,15.90
2019-05-23T06:26:40.664Z,16.00
2019-05-23T06:29:11.772Z,16.10
2019-05-23T06:31:43.404Z,16.10
2019-05-23T06:34:14.464Z,16.20
2019-05-23T06:36:46.794Z,16.30
2019-05-23T06:39:17.806Z,16.30
2019-05-23T06:41:49.077Z,16.40
2019-05-23T06:44:20.499Z,16.40
2019-05-23T06:46:51.411Z,16.50
2019-05-23T06:49:22.630Z,16.60
2019-05-23T06:51:53.945Z,16.80
2019-05-23T06:54:25.145Z,16.80
2019-05-23T06:56:56.348Z,16.90
2019-05-23T06:59:27.329Z,17.00
2019-05-23T07:01:58.923Z,17.00
2019-05-23T07:04:30.869Z,17.10
2019-05-23T07:07:02.701Z,17.10
2019-05-23T07:09:33.834Z,17.20
2019-05-23T07:12:05.418Z,17.30
2019-05-23T07:14:37.166Z,17.30
2019-05-23T07:17:09.529Z,17.40
2019-05-23T07:19:40.388Z,17.40
2019-05-23T07:22:13.293Z,17.40
2019-05-23T07:24:57.710Z,17.50
2019-05-23T07:27:16.409Z,17.50
2019-05-23T07:29:47.361Z,17.50
2019-05-23T07:32:18.294Z,17.50
2019-05-23T07:34:49.023Z,17.70
2019-05-23T07:37:19.623Z,17.90
2019-05-23T07:39:50.752Z,18.00
2019-05-23T07:42:21.638Z,18.00
2019-05-23T07:44:53.894Z,18.10
2019-05-23T07:47:24.764Z,18.20
2019-05-23T07:49:55.581Z,18.20
2019-05-23T07:52:26.469Z,18.30
2019-05-23T07:55:02.698Z,18.30
2019-05-23T07:57:33.901Z,18.40
2019-05-23T08:00:07.103Z,18.40
2019-05-23T08:02:41.163Z,18.50
2019-05-23T08:05:13.582Z,18.50
2019-05-23T08:07:44.876Z,18.50
2019-05-23T08:10:32.687Z,18.50
2019-05-23T08:13:23.952Z,18.60
2019-05-23T08:15:55.609Z,18.90
2019-05-23T08:18:26.609Z,19.10
2019-05-23T08:34:03.001Z,18.90
2019-05-23T08:36:34.375Z,19.30
2019-05-23T08:39:07.980Z,19.40
2019-05-23T08:41:38.884Z,19.70
2019-05-23T08:44:11.525Z,19.70
2019-05-23T08:46:42.921Z,19.70
2019-05-23T08:49:14.399Z,19.60
2019-05-23T08:51:45.754Z,19.50
2019-05-23T08:54:16.632Z,19.60
2019-05-23T08:56:47.664Z,19.60
2019-05-23T08:59:18.667Z,19.70
2019-05-23T09:01:49.547Z,19.80
2019-05-23T09:04:20.417Z,19.90
2019-05-23T09:06:51.259Z,20.00
2019-05-23T09:09:29.529Z,19.90
2019-05-23T09:11:55.748Z,19.90
2019-05-23T09:14:27.294Z,20.00
2019-05-23T09:16:58.115Z,20.00
2019-05-23T09:19:28.985Z,19.90
2019-05-23T09:21:59.989Z,20.00
2019-05-23T09:24:31.059Z,20.20
2019-05-23T09:27:02.029Z,20.50
2019-05-23T09:29:33.169Z,20.40
2019-05-23T09:32:04.593Z,20.40
2019-05-23T09:34:35.845Z,20.20
2019-05-23T09:37:08.425Z,20.30
2019-05-23T09:39:40.830Z,20.40
2019-05-23T09:42:12.271Z,20.60
2019-05-23T09:44:43.326Z,20.60
2019-05-23T09:47:14.519Z,20.80
2019-05-23T09:49:53.863Z,21.00
2019-05-23T09:52:18.301Z,21.10
2019-05-23T09:54:49.100Z,20.90
2019-05-23T09:57:20.125Z,20.70
2019-05-23T09:59:51.095Z,20.70
2019-05-23T10:02:21.899Z,21.00
2019-05-23T10:04:53.273Z,20.80
2019-05-23T10:07:24.270Z,21.00
2019-05-23T10:09:55.224Z,21.00
2019-05-23T10:12:26.149Z,21.00
2019-05-23T10:14:57.018Z,21.20
2019-05-23T10:17:28.225Z,21.30
2019-05-23T10:19:59.087Z,21.60
2019-05-23T10:22:30.309Z,22.00
2019-05-23T10:25:01.101Z,21.90
2019-05-23T10:27:32.116Z,21.80
2019-05-23T10:30:03.120Z,21.40
2019-05-23T10:32:34.074Z,21.20
2019-05-23T10:35:05.924Z,21.30
2019-05-23T10:37:36.779Z,21.60
2019-05-23T10:40:08.326Z,21.60
2019-05-23T10:42:39.579Z,21.60
2019-05-23T10:45:12.258Z,21.60
2019-05-23T10:47:43.004Z,21.80
2019-05-23T10:50:14.419Z,22.00
2019-05-23T10:52:45.281Z,21.90
2019-05-23T10:55:16.184Z,21.60
2019-05-23T10:57:47.313Z,22.00
2019-05-23T11:00:20.063Z,22.30
2019-05-23T11:02:51.594Z,22.40
2019-05-23T11:05:23.159Z,22.10
2019-05-23T11:07:54.029Z,22.20
2019-05-23T11:10:25.106Z,22.20
2019-05-23T11:12:56.437Z,21.90
2019-05-23T11:15:27.596Z,22.10
2019-05-23T11:17:59.245Z,22.00
2019-05-23T11:20:30.254Z,22.00
2019-05-23T11:23:03.580Z,22.10
2019-05-23T11:25:34.658Z,22.30
2019-05-23T11:28:05.611Z,22.40
2019-05-23T11:30:50.984Z,23.10
2019-05-23T11:33:24.009Z,23.00
2019-05-23T11:35:54.896Z,22.80
2019-05-23T11:38:26.124Z,23.00
2019-05-23T11:40:56.982Z,23.30
2019-05-23T11:43:27.829Z,22.90
2019-05-23T11:46:02.457Z,23.60
2019-05-23T11:48:35.071Z,23.80
2019-05-23T11:51:05.959Z,24.10
2019-05-23T11:53:36.799Z,24.20
2019-05-23T11:56:08.109Z,24.40
2019-05-23T11:58:39.449Z,23.80
2019-05-23T12:01:21.166Z,23.60
2019-05-23T12:03:56.402Z,23.90
2019-05-23T12:06:29.735Z,24.20
2019-05-23T12:09:00.650Z,24.20
2019-05-23T12:11:35.855Z,24.70
2019-05-23T12:14:04.297Z,24.60
2019-05-23T12:16:35.934Z,24.60
2019-05-23T12:19:07.653Z,24.60
2019-05-23T12:21:38.414Z,24.90
2019-05-23T12:24:09.309Z,25.00
2019-05-23T12:26:40.297Z,25.20
2019-05-23T12:29:11.224Z,25.60
2019-05-23T12:31:42.404Z,25.50
2019-05-23T12:34:13.526Z,24.90
2019-05-23T12:40:15.784Z,25.30
2019-05-23T12:42:46.515Z,25.20
2019-05-23T12:45:17.770Z,25.50
2019-05-23T12:48:05.207Z,25.40
2019-05-23T12:50:42.084Z,25.50
2019-05-23T12:53:14.930Z,25.40
2019-05-23T12:55:45.994Z,24.80
2019-05-23T12:58:16.820Z,24.80
2019-05-23T13:00:59.501Z,25.10
2019-05-23T13:03:30.484Z,25.10
2019-05-23T13:06:01.555Z,25.90
2019-05-23T13:08:32.676Z,27.00
2019-05-23T13:11:03.519Z,26.90
2019-05-23T13:13:34.341Z,26.60
2019-05-23T13:16:05.268Z,26.60
2019-05-23T13:18:36.228Z,27.00
2019-05-23T13:21:07.279Z,28.10
2019-05-23T13:23:38.314Z,29.50
2019-05-23T13:26:09.329Z,30.40
2019-05-23T13:28:40.327Z,31.00
2019-05-23T13:31:11.165Z,31.10
2019-05-23T13:33:42.273Z,29.60
2019-05-23T13:36:13.345Z,30.10
2019-05-23T13:38:44.331Z,30.70
2019-05-23T13:41:15.647Z,29.20
2019-05-23T13:43:46.516Z,30.00
2019-05-23T13:46:17.429Z,28.90
2019-05-23T13:48:48.544Z,29.20
2019-05-23T13:51:19.467Z,28.90
2019-05-23T13:53:50.675Z,29.90
2019-05-23T13:56:22.060Z,29.90
2019-05-23T13:58:53.362Z,29.90
2019-05-23T14:01:24.438Z,29.10
2019-05-23T14:03:55.870Z,28.20
2019-05-23T14:06:26.585Z,29.00
2019-05-23T14:08:57.459Z,30.30
2019-05-23T14:11:28.824Z,30.40
2019-05-23T14:14:02.208Z,30.20
2019-05-23T14:16:34.924Z,30.10
2019-05-23T14:19:06.041Z,29.20
2019-05-23T14:21:37.124Z,29.80
2019-05-23T14:24:08.526Z,31.60
2019-05-23T14:26:45.636Z,31.40
2019-05-23T14:29:16.864Z,31.90
2019-05-23T14:31:55.576Z,32.60
2019-05-23T14:34:26.464Z,32.40
2019-05-23T14:37:18.935Z,31.90
2019-05-23T14:39:55.034Z,33.20
2019-05-23T14:42:47.548Z,33.70
2019-05-23T14:45:46.129Z,30.70
2019-05-23T14:48:25.869Z,31.40
2019-05-23T14:51:27.929Z,31.10
2019-05-23T14:54:04.555Z,29.50
2019-05-23T14:56:36.051Z,29.30
2019-05-23T14:59:07.218Z,30.20
2019-05-23T15:01:38.339Z,30.80
2019-05-23T15:04:09.479Z,31.30
2019-05-23T15:06:40.471Z,32.40
2019-05-23T15:09:11.661Z,32.70
2019-05-23T15:11:43.546Z,30.40
2019-05-23T15:14:14.703Z,32.20
2019-05-23T15:16:45.564Z,32.70
2019-05-23T15:19:36.440Z,33.80
2019-05-23T15:21:49.043Z,32.90
2019-05-23T15:24:20.750Z,32.80
2019-05-23T15:26:52.108Z,32.90
2019-05-23T15:29:22.919Z,33.00
2019-05-23T15:32:02.555Z,32.00
2019-05-23T15:34:26.729Z,32.80
2019-05-23T15:36:57.774Z,32.40
2019-05-23T15:39:29.103Z,33.60
2019-05-23T15:41:59.915Z,34.30
2019-05-23T15:44:31.147Z,34.90
2019-05-23T15:47:01.978Z,34.50
2019-05-23T15:49:33.238Z,34.60
2019-05-23T15:52:19.129Z,34.80
2019-05-23T15:54:54.478Z,34.60
2019-05-23T15:57:46.086Z,32.70
2019-05-23T16:00:36.299Z,32.10
2019-05-23T16:03:16.695Z,31.90
2019-05-23T16:05:48.189Z,31.30
2019-05-23T16:08:19.369Z,31.30
2019-05-23T16:10:50.263Z,30.00
2019-05-23T16:13:21.450Z,29.00
2019-05-23T16:15:52.329Z,29.00
2019-05-23T16:18:23.735Z,30.20
2019-05-23T16:20:54.529Z,31.70
2019-05-23T16:23:25.682Z,32.90
2019-05-23T16:25:56.954Z,34.10
2019-05-23T16:28:28.043Z,32.90
2019-05-23T16:30:58.894Z,32.20
2019-05-23T16:33:29.760Z,32.50
2019-05-23T16:36:01.288Z,32.60
2019-05-23T16:38:32.869Z,32.70
2019-05-23T16:41:03.539Z,32.80
2019-05-23T16:43:35.150Z,32.60
2019-05-23T16:46:06.309Z,32.90
2019-05-23T16:48:38.013Z,32.20
2019-05-23T16:51:09.347Z,30.00
2019-05-23T16:53:41.169Z,31.60
2019-05-23T16:56:33.654Z,33.20
2019-05-23T16:59:16.167Z,32.80
2019-05-23T17:02:06.322Z,32.50
2019-05-23T17:05:10.370Z,33.50
2019-05-23T17:08:03.138Z,33.70
2019-05-23T17:10:54.109Z,34.00
2019-05-23T17:13:29.977Z,34.10
2019-05-23T17:16:25.258Z,32.80
2019-05-23T17:19:13.918Z,31.90
2019-05-23T17:22:03.484Z,31.30
2019-05-23T17:25:11.504Z,31.40
2019-05-23T17:27:58.825Z,30.70
2019-05-23T17:30:45.594Z,31.80
2019-05-23T17:33:16.839Z,32.30
2019-05-23T17:35:48.524Z,32.60
2019-05-23T17:38:19.490Z,33.10
2019-05-23T17:40:50.565Z,33.60
2019-05-23T17:43:22.103Z,33.10
2019-05-23T17:45:53.774Z,32.70
2019-05-23T17:48:24.840Z,32.80
2019-05-23T17:50:56.510Z,33.30
2019-05-23T17:53:27.529Z,33.50
2019-05-23T17:59:39.220Z,31.30
2019-05-23T18:02:11.263Z,30.80
2019-05-23T18:04:42.299Z,30.40
2019-05-23T18:07:13.965Z,29.50
2019-05-23T18:09:45.259Z,28.90
2019-05-23T18:12:16.264Z,28.50
2019-05-23T18:14:47.704Z,28.60
2019-05-23T18:17:18.589Z,28.30
2019-05-23T18:19:50.508Z,27.90
2019-05-23T18:22:21.928Z,28.20
2019-05-23T18:24:53.099Z,28.00
2019-05-23T18:27:24.730Z,27.80
2019-05-23T18:29:55.815Z,27.70
2019-05-23T18:32:28.207Z,27.20
2019-05-23T18:34:59.776Z,26.80
2019-05-23T18:37:30.875Z,26.70
2019-05-23T18:40:02.192Z,25.90
2019-05-23T18:42:33.125Z,25.60
2019-05-23T18:45:04.615Z,25.00
2019-05-23T18:47:39.126Z,24.70
2019-05-23T18:50:11.840Z,24.20
2019-05-23T18:52:42.851Z,23.80
2019-05-23T18:55:14.325Z,23.40
2019-05-23T18:57:45.727Z,23.30
2019-05-23T19:00:18.529Z,23.10
2019-05-23T19:02:50.165Z,22.90
2019-05-23T19:05:21.309Z,22.80
2019-05-23T19:07:52.295Z,22.60
2019-05-23T19:10:23.114Z,22.50
2019-05-23T19:12:53.974Z,22.40
2019-05-23T19:15:25.579Z,22.20
2019-05-23T19:17:57.371Z,22.10
2019-05-23T19:20:28.441Z,21.90
2019-05-23T19:22:59.859Z,21.80
2019-05-23T19:25:31.020Z,21.60
2019-05-23T19:28:02.204Z,21.50
2019-05-23T19:30:33.537Z,21.50
2019-05-23T19:33:05.657Z,21.40
2019-05-23T19:35:37.529Z,21.30
2019-05-23T19:38:08.873Z,21.20
2019-05-23T19:40:40.909Z,21.10
2019-05-23T19:43:13.400Z,21.00
2019-05-23T19:45:44.720Z,21.00
2019-05-23T19:48:16.059Z,20.90
2019-05-23T19:50:47.044Z,20.90
2019-05-23T19:53:18.095Z,20.70
2019-05-23T19:55:49.214Z,20.60
2019-05-23T19:58:21.012Z,20.60
2019-05-23T20:00:51.970Z,20.50
2019-05-23T20:03:23.024Z,20.50
2019-05-23T20:05:55.379Z,20.40
2019-05-23T20:08:26.514Z,20.30
2019-05-23T20:10:57.399Z,20.20
2019-05-23T20:13:29.509Z,20.10
2019-05-23T20:16:00.515Z,20.10
2019-05-23T20:18:31.831Z,20.00
2019-05-23T20:21:03.370Z,20.00
2019-05-23T20:23:34.965Z,19.80
2019-05-23T20:26:08.283Z,19.80
2019-05-23T20:28:40.364Z,19.70
2019-05-23T20:31:11.869Z,19.70
2019-05-23T20:33:42.781Z,19.60
2019-05-23T20:36:14.281Z,19.50
2019-05-23T20:38:45.744Z,19.40
2019-05-23T20:41:18.405Z,19.50
2019-05-23T20:43:49.909Z,19.40
2019-05-23T20:46:21.169Z,19.30
2019-05-23T20:48:52.079Z,19.20
2019-05-23T20:51:23.929Z,19.20
2019-05-23T20:53:55.523Z,19.10
2019-05-23T20:56:26.401Z,19.10
2019-05-23T20:58:57.251Z,18.90
2019-05-23T21:01:32.265Z,18.90
2019-05-23T21:04:03.017Z,18.80
2019-05-23T21:06:42.420Z,18.70
2019-05-23T21:09:19.849Z,18.60
2019-05-23T21:11:50.716Z,18.60
2019-05-23T21:14:21.654Z,18.60
2019-05-23T21:16:52.344Z,18.60
2019-05-23T21:19:23.335Z,18.60
2019-05-23T21:21:54.489Z,18.50
2019-05-23T21:24:25.478Z,18.40
2019-05-23T21:26:56.896Z,18.40
2019-05-23T21:29:27.775Z,18.40
2019-05-23T21:31:59.245Z,18.40
2019-05-23T21:34:30.476Z,18.30
2019-05-23T21:37:01.304Z,18.20
2019-05-23T21:39:32.530Z,18.00
2019-05-23T21:42:03.870Z,18.00
2019-05-23T21:44:35.289Z,17.90
2019-05-23T21:50:46.211Z,17.80
2019-05-23T21:53:17.589Z,17.70
2019-05-23T21:55:48.385Z,17.70
2019-05-23T21:58:19.790Z,17.60
2019-05-23T22:01:30.995Z,17.60
2019-05-23T22:04:27.282Z,17.60
2019-05-23T22:07:00.810Z,17.50
2019-05-23T22:09:32.839Z,17.50
2019-05-23T22:12:03.959Z,17.50
2019-05-23T22:14:36.350Z,17.50
2019-05-23T22:17:07.229Z,17.50
2019-05-23T22:19:38.004Z,17.40
2019-05-23T22:22:09.635Z,17.40
2019-05-23T22:24:40.424Z,17.40
2019-05-23T22:27:12.234Z,17.40
2019-05-23T22:29:43.175Z,17.40
2019-05-23T22:32:15.185Z,17.40
2019-05-23T22:35:14.349Z,17.40
2019-05-23T22:37:45.723Z,17.40
2019-05-23T22:40:17.599Z,17.40
2019-05-23T22:42:48.509Z,17.40
2019-05-23T22:45:21.989Z,17.40
2019-05-23T22:47:53.149Z,17.40
2019-05-23T22:50:23.874Z,17.40
2019-05-23T22:52:54.821Z,17.40
2019-05-23T22:55:25.759Z,17.40
2019-05-23T22:57:56.491Z,17.30
2019-05-23T23:00:33.725Z,17.30
2019-05-23T23:03:05.281Z,17.30
2019-05-23T23:05:36.250Z,17.10
2019-05-23T23:08:07.489Z,17.00
2019-05-23T23:10:38.379Z,16.90
2019-05-23T23:13:09.198Z,17.00
2019-05-23T23:15:40.068Z,16.90
2019-05-23T23:18:10.936Z,16.70
2019-05-23T23:20:45.204Z,16.50
2019-05-23T23:23:14.350Z,16.20
2019-05-23T23:25:45.256Z,16.00
2019-05-23T23:28:16.110Z,15.90
2019-05-23T23:30:48.390Z,15.90
2019-05-23T23:33:19.379Z,15.90
2019-05-23T23:35:50.672Z,15.70
2019-05-23T23:38:22.064Z,15.70
2019-05-23T23:40:52.985Z,15.70
2019-05-23T23:43:24.744Z,15.70
2019-05-23T23:46:13.144Z,15.60
2019-05-23T23:49:01.254Z,15.70
2019-05-23T23:51:50.043Z,15.80
2019-05-23T23:54:38.353Z,15.70
2019-05-23T23:57:26.688Z,15.50
